Time;durP1;ratioP1;P1;durP2;ratioP2;P2;SDS_P1;SDS_P2;PMS_P1;PMS_P2;Temp;Humidity;BMP_temperature;BMP_pressure;BME280_temperature;BME280_humidity;BME280_pressure;Samples;Min_cycle;Max_cycle;Signal;HPM_P1;HPM_P2
2021/12/10 00:01:54;;;;;;;64.57;33.28;;;;;;;4.78;86.30;99329.34;5070486;28;20035;-20
2021/12/10 00:04:21;;;;;;;65.10;32.80;;;;;;;4.56;87.91;99301.44;5070648;28;20116;-20
2021/12/10 00:06:52;;;;;;;69.40;33.45;;;;;;;4.73;86.30;99329.09;5070585;28;20040;-20
2021/12/10 00:09:29;;;;;;;74.47;35.88;;;;;;;4.08;88.09;99325.16;5070566;28;20036;-20
2021/12/10 00:12:00;;;;;;;73.10;33.72;;;;;;;4.02;91.37;99322.31;5070142;28;20484;-20
2021/12/10 00:14:29;;;;;;;70.80;35.78;;;;;;;4.23;92.08;99321.41;5069987;28;20033;-20
2021/12/10 00:16:55;;;;;;;74.03;36.00;;;;;;;4.41;90.03;99307.69;5070218;28;20032;-20
2021/12/10 00:21:52;;;;;;;66.50;35.97;;;;;;;4.81;87.80;99291.94;5070138;28;20051;-20
2021/12/10 00:24:18;;;;;;;65.65;33.67;;;;;;;4.55;87.66;99283.94;5070140;28;20028;-20
2021/12/10 00:26:44;;;;;;;58.53;30.60;;;;;;;4.52;89.29;99289.63;5051771;28;20033;-20
2021/12/10 00:29:10;;;;;;;64.05;30.60;;;;;;;4.13;89.59;99264.72;5070083;28;20028;-20
2021/12/10 00:34:18;;;;;;;58.50;31.10;;;;;;;4.07;91.11;99270.78;5069993;28;20060;-20
2021/12/10 00:36:44;;;;;;;67.65;30.45;;;;;;;3.82;91.35;99264.16;5069983;28;20025;-20
2021/12/10 00:39:13;;;;;;;63.65;31.65;;;;;;;3.80;92.00;99276.72;5069930;28;20078;-20
2021/12/10 00:41:39;;;;;;;68.00;31.40;;;;;;;3.66;91.47;99255.72;5069683;28;20048;-20
2021/12/10 00:44:04;;;;;;;62.42;30.40;;;;;;;3.62;93.21;99276.41;5069860;28;20547;-20
2021/12/10 00:46:30;;;;;;;64.30;30.95;;;;;;;3.97;92.74;99277.22;5069639;28;20071;-20
2021/12/10 00:48:55;;;;;;;57.95;27.88;;;;;;;4.23;91.89;99281.00;5069928;28;20158;-20
2021/12/10 00:51:21;;;;;;;62.60;27.58;;;;;;;4.30;90.68;99257.28;5069725;28;20480;-20
2021/12/10 00:53:47;;;;;;;71.65;29.55;;;;;;;4.21;89.63;99261.91;5069510;28;20028;-21
2021/12/10 00:56:13;;;;;;;59.28;29.80;;;;;;;4.23;90.09;99250.16;5069698;28;20028;-21
2021/12/10 00:58:39;;;;;;;61.55;29.27;;;;;;;3.96;88.31;99217.56;5069377;28;20029;-20
2021/12/10 01:01:07;;;;;;;59.70;28.92;;;;;;;3.76;88.68;99230.66;5069254;28;20565;-20
2021/12/10 01:03:44;;;;;;;65.97;32.30;;;;;;;3.78;89.31;99235.72;5069716;28;20035;-20
2021/12/10 01:06:11;;;;;;;60.53;28.27;;;;;;;3.59;90.65;99250.41;5069496;28;20032;-20
2021/12/10 01:08:38;;;;;;;66.40;30.63;;;;;;;3.67;88.85;99231.81;5068949;28;20027;-20
2021/12/10 01:11:15;;;;;;;74.32;32.50;;;;;;;3.59;90.17;99214.31;5051402;28;20424;-20
2021/12/10 01:13:43;;;;;;;71.95;31.33;;;;;;;3.53;89.13;99230.09;5069205;28;20086;-20
2021/12/10 01:24:54;;;;;;;77.63;34.65;;;;;;;3.30;89.56;99214.56;5067952;28;20047;-20
2021/12/10 01:27:32;;;;;;;75.85;33.42;;;;;;;3.43;90.26;99238.34;5068975;28;20025;-21
2021/12/10 01:30:12;;;;;;;80.28;37.00;;;;;;;3.78;88.90;99222.53;5068808;28;20115;-20
2021/12/10 01:32:41;;;;;;;81.07;36.92;;;;;;;3.61;87.89;99204.41;5068489;28;20105;-21
2021/12/10 01:35:08;;;;;;;92.28;40.85;;;;;;;3.60;90.11;99212.53;5068750;28;20060;-20
2021/12/10 01:37:33;;;;;;;90.07;41.50;;;;;;;3.65;89.45;99183.72;5068691;28;20045;-21
2021/12/10 01:39:59;;;;;;;92.22;40.88;;;;;;;3.70;88.28;99180.50;5068387;28;20036;-20
2021/12/10 01:44:56;;;;;;;82.60;38.00;;;;;;;3.00;92.05;99196.28;5068269;28;20123;-21
2021/12/10 01:47:24;;;;;;;89.55;39.78;;;;;;;3.00;94.16;99185.75;5068743;28;20036;-20
2021/12/10 01:49:49;;;;;;;90.53;39.42;;;;;;;3.09;94.29;99203.06;5050486;28;20444;-21
2021/12/10 01:52:15;;;;;;;89.82;40.15;;;;;;;3.30;93.56;99190.84;5068456;28;20078;-20
2021/12/10 01:54:44;;;;;;;88.40;40.80;;;;;;;3.67;92.65;99178.28;5068241;28;20037;-20
2021/12/10 01:57:11;;;;;;;90.43;38.38;;;;;;;3.88;91.21;99182.63;5068285;28;20551;-21
2021/12/10 01:59:37;;;;;;;85.20;39.10;;;;;;;3.68;91.65;99186.00;5068044;28;20165;-21
2021/12/10 02:02:09;;;;;;;82.28;37.90;;;;;;;3.49;92.38;99179.59;5068385;28;20032;-20
2021/12/10 02:04:35;;;;;;;85.00;38.30;;;;;;;3.39;92.37;99181.75;5068156;28;20131;-20
2021/12/10 02:07:01;;;;;;;102.00;44.55;;;;;;;3.56;93.27;99180.44;5068303;28;20206;-20
2021/12/10 02:09:27;;;;;;;103.13;44.67;;;;;;;3.84;91.84;99171.63;5068643;28;20115;-20
2021/12/10 02:11:53;;;;;;;100.05;46.08;;;;;;;3.67;91.68;99167.72;5067984;28;20085;-21
2021/12/10 02:14:19;;;;;;;90.93;42.97;;;;;;;3.77;90.54;99182.16;5067948;28;20388;-20
2021/12/10 02:16:44;;;;;;;98.50;45.55;;;;;;;3.73;91.45;99167.75;5067942;28;20400;-21
2021/12/10 02:19:10;;;;;;;103.72;49.40;;;;;;;3.95;90.71;99147.34;5068019;28;20395;-21
2021/12/10 02:21:39;;;;;;;99.30;46.60;;;;;;;4.05;89.94;99162.81;5068224;28;20032;-20
2021/12/10 02:24:04;;;;;;;96.72;45.80;;;;;;;4.23;90.27;99164.88;5067902;28;20028;-21
2021/12/10 02:26:38;;;;;;;96.28;47.75;;;;;;;4.23;88.26;99138.50;5068049;28;20040;-21
2021/12/10 02:29:04;;;;;;;99.43;47.28;;;;;;;4.36;88.85;99143.78;5068139;28;20035;-20
2021/12/10 02:34:53;;;;;;;92.03;47.73;;;;;;;4.39;88.67;99121.44;4847430;27;8196446;-22
2021/12/10 02:37:18;;;;;;;98.85;48.55;;;;;;;4.61;87.52;99108.88;5105074;28;20046;-20
2021/12/10 02:39:44;;;;;;;94.15;47.42;;;;;;;5.02;86.34;99127.09;5105388;28;20032;-20
2021/12/10 02:42:09;;;;;;;96.18;47.83;;;;;;;5.21;85.05;99119.34;5105740;28;20027;-20
2021/12/10 02:44:35;;;;;;;88.50;45.25;;;;;;;4.73;86.34;99109.88;5104137;28;20019;-20
2021/12/10 02:47:00;;;;;;;89.55;45.50;;;;;;;4.65;86.84;99125.13;5105334;28;20035;-20
2021/12/10 02:49:27;;;;;;;87.85;45.72;;;;;;;4.49;86.96;99121.03;5105459;28;20474;-20
2021/12/10 02:51:53;;;;;;;90.13;45.53;;;;;;;4.48;88.83;99119.44;5105424;28;20035;-20
2021/12/10 02:54:23;;;;;;;94.07;47.78;;;;;;;4.73;87.43;99112.50;5104879;28;20024;-20
2021/12/10 02:56:49;;;;;;;94.28;47.75;;;;;;;4.62;87.32;99086.75;5105079;28;20028;-20
2021/12/10 02:59:15;;;;;;;95.55;46.20;;;;;;;4.46;87.99;99090.59;5103897;28;20487;-20
2021/12/10 03:01:43;;;;;;;90.95;46.53;;;;;;;4.47;88.99;99096.69;5105289;28;20064;-20
2021/12/10 03:04:09;;;;;;;92.53;45.17;;;;;;;4.71;87.72;99076.75;5105253;28;20830;-20
2021/12/10 03:06:42;;;;;;;92.65;46.15;;;;;;;4.41;88.99;99083.28;5105043;28;20036;-20
2021/12/10 03:09:08;;;;;;;97.43;45.05;;;;;;;4.69;89.73;99099.94;5105261;28;20032;-20
2021/12/10 03:11:35;;;;;;;91.70;46.47;;;;;;;4.82;88.45;99095.44;5105233;28;20089;-20
2021/12/10 03:14:05;;;;;;;96.57;45.20;;;;;;;5.05;87.65;99088.91;5105284;28;20371;-21
2021/12/10 03:16:32;;;;;;;94.25;46.88;;;;;;;5.16;87.28;99092.75;5104850;28;20106;-20
2021/12/10 03:18:57;;;;;;;95.55;47.25;;;;;;;5.28;86.55;99095.56;5104918;28;20103;-20
2021/12/10 03:21:23;;;;;;;105.95;47.20;;;;;;;5.17;85.95;99097.81;5105049;28;20035;-22
2021/12/10 03:23:48;;;;;;;100.60;47.15;;;;;;;4.89;88.19;99108.66;5104980;28;20028;-20
2021/12/10 03:26:16;;;;;;;95.35;43.95;;;;;;;4.48;89.36;99101.75;5104786;28;20817;-20
2021/12/10 03:28:42;;;;;;;111.07;48.05;;;;;;;4.29;91.12;99090.19;5103325;28;20060;-20
2021/12/10 03:31:07;;;;;;;77.65;34.13;;;;;;;3.78;92.87;99094.16;5104803;28;20174;-20
2021/12/10 03:33:33;;;;;;;109.55;50.35;;;;;;;3.67;96.03;99101.81;5091383;28;20411;-21
2021/12/10 03:35:59;;;;;;;112.22;48.00;;;;;;;3.91;96.33;99101.28;5097533;28;20499;-20
2021/12/10 03:38:24;;;;;;;124.03;48.83;;;;;;;4.03;96.34;99090.94;5104961;28;20031;-22
2021/12/10 03:40:50;;;;;;;112.43;46.08;;;;;;;4.08;96.22;99096.44;5104483;28;20104;-20
2021/12/10 03:43:16;;;;;;;94.18;41.22;;;;;;;3.89;96.94;99097.22;5104569;28;20028;-19
2021/12/10 03:45:44;;;;;;;111.25;46.80;;;;;;;3.97;97.30;99089.91;5091483;28;20039;-22
2021/12/10 03:48:11;;;;;;;;;;;;;;;4.23;96.58;99093.63;5091196;28;20059;-20
2021/12/10 03:50:36;;;;;;;109.47;44.70;;;;;;;4.11;96.74;99111.88;5090762;28;19912;-20
2021/12/10 03:53:02;;;;;;;86.90;37.88;;;;;;;3.76;97.20;99105.88;5090943;28;20051;-22
2021/12/10 03:55:28;;;;;;;114.93;46.85;;;;;;;3.95;97.80;99099.06;5091053;28;20517;-20
2021/12/10 03:57:53;;;;;;;114.05;47.38;;;;;;;4.29;95.72;99092.81;5091045;28;20068;-20
2021/12/10 04:00:20;;;;;;;102.55;44.50;;;;;;;4.69;93.37;99100.72;5090615;28;20419;-21
2021/12/10 04:02:46;;;;;;;98.97;42.70;;;;;;;4.63;92.28;99104.19;5090304;28;20032;-20
2021/12/10 04:05:11;;;;;;;95.10;40.75;;;;;;;4.11;94.34;99111.88;5090426;28;20031;-20
2021/12/10 04:07:37;;;;;;;122.05;51.75;;;;;;;4.07;95.94;99123.03;5090592;28;20457;-20
2021/12/10 04:10:05;;;;;;;113.13;47.13;;;;;;;4.14;94.66;99086.91;5090850;28;20036;-20
2021/12/10 04:12:30;;;;;;;112.28;46.83;;;;;;;4.40;94.33;99102.75;5071964;28;20027;-20
2021/12/10 04:14:56;;;;;;;114.18;44.60;;;;;;;4.39;93.75;99101.16;5090969;28;20040;-20
2021/12/10 04:17:22;;;;;;;138.73;57.00;;;;;;;4.51;93.68;99095.25;5090569;28;20040;-20
2021/12/10 04:19:50;;;;;;;111.03;47.10;;;;;;;4.56;93.14;99095.47;5090331;28;20105;-20
2021/12/10 04:22:16;;;;;;;110.00;44.23;;;;;;;4.50;92.50;99073.31;5090391;28;20036;-21
2021/12/10 04:24:41;;;;;;;122.38;48.17;;;;;;;4.68;92.79;99041.03;5071892;28;20077;-20
2021/12/10 04:27:09;;;;;;;102.78;43.78;;;;;;;4.51;92.61;99092.63;5090418;28;20031;-20
2021/12/10 04:29:34;;;;;;;118.22;47.63;;;;;;;4.32;94.15;99042.25;5088869;28;20876;-20
2021/12/10 04:32:00;;;;;;;109.97;45.33;;;;;;;4.43;93.09;99057.50;5089802;28;20032;-21
2021/12/10 04:34:25;;;;;;;110.20;46.28;;;;;;;4.85;92.81;99051.16;5087605;28;20419;-21
2021/12/10 04:36:52;;;;;;;113.00;46.05;;;;;;;4.71;92.21;99069.66;5088776;28;20407;-20
2021/12/10 04:39:18;;;;;;;121.78;49.20;;;;;;;4.63;91.77;99085.69;5089389;28;20073;-20
2021/12/10 04:41:43;;;;;;;116.45;45.63;;;;;;;4.65;92.42;99081.03;5089257;28;20089;-20
2021/12/10 04:44:09;;;;;;;117.82;50.50;;;;;;;4.74;92.20;99050.75;5089533;28;20028;-19
2021/12/10 04:46:34;;;;;;;117.50;46.83;;;;;;;4.83;92.04;99060.06;5088742;28;20059;-21
2021/12/10 04:49:02;;;;;;;130.23;52.38;;;;;;;4.60;92.85;99057.88;5071196;28;20043;-20
2021/12/10 04:51:31;;;;;;;133.57;54.95;;;;;;;4.80;92.25;99081.63;5089744;28;20039;-20
2021/12/10 04:53:57;;;;;;;124.15;51.80;;;;;;;4.93;91.41;99096.66;5088254;28;20067;-20
2021/12/10 04:56:23;;;;;;;114.45;48.35;;;;;;;5.15;90.68;99073.44;5088550;28;20569;-21
2021/12/10 04:58:49;;;;;;;106.32;45.55;;;;;;;5.27;89.32;99070.13;5089602;28;20040;-21
2021/12/10 05:01:14;;;;;;;107.47;45.75;;;;;;;5.28;89.51;99095.56;5089303;28;20046;-20
2021/12/10 05:03:40;;;;;;;109.00;47.22;;;;;;;4.97;89.09;99081.22;5071215;28;20028;-20
2021/12/10 05:06:06;;;;;;;98.93;44.58;;;;;;;5.04;89.25;99072.22;5089200;28;20038;-21
2021/12/10 05:08:31;;;;;;;105.70;45.60;;;;;;;4.97;89.75;99100.50;5089107;28;20036;-20
2021/12/10 05:10:57;;;;;;;114.40;47.35;;;;;;;5.22;89.54;99102.47;5089046;28;20031;-20
2021/12/10 05:13:23;;;;;;;104.85;43.40;;;;;;;5.04;89.81;99108.41;5089177;28;20034;-20
2021/12/10 05:15:57;;;;;;;110.38;47.65;;;;;;;5.41;88.57;99092.84;5087942;28;20093;-20
2021/12/10 05:18:22;;;;;;;132.10;55.85;;;;;;;5.29;88.85;99094.53;5089365;28;20039;-20
2021/12/10 05:20:48;;;;;;;111.68;45.15;;;;;;;5.12;89.57;99080.97;5089018;28;20031;-20
2021/12/10 05:23:15;;;;;;;128.75;54.83;;;;;;;5.22;89.97;99095.34;5089180;28;20548;-20
2021/12/10 05:25:42;;;;;;;118.32;45.95;;;;;;;5.46;88.48;99095.69;5088953;28;20089;-21
2021/12/10 05:28:07;;;;;;;98.32;45.90;;;;;;;5.32;89.61;99104.69;5089208;28;20062;-20
2021/12/10 05:30:34;;;;;;;117.18;47.92;;;;;;;5.11;88.80;99097.81;5088265;28;20467;-21
2021/12/10 05:33:01;;;;;;;122.05;54.83;;;;;;;5.05;90.87;99099.47;5088575;28;20039;-20
2021/12/10 05:35:26;;;;;;;103.20;46.15;;;;;;;5.17;90.88;99124.25;5088770;28;20417;-20
2021/12/10 05:37:52;;;;;;;109.57;46.10;;;;;;;5.24;90.01;99130.31;5088524;28;20035;-20
2021/12/10 05:40:17;;;;;;;100.82;43.03;;;;;;;5.03;90.21;99125.28;5088660;28;20035;-20
2021/12/10 05:42:46;;;;;;;115.68;47.30;;;;;;;5.03;91.23;99109.44;5088376;28;20024;-20
2021/12/10 05:45:12;;;;;;;109.03;46.40;;;;;;;4.76;92.99;99158.81;5088598;28;20039;-20
2021/12/10 05:47:37;;;;;;;111.32;45.53;;;;;;;4.70;93.21;99127.94;5088790;28;20039;-20
2021/12/10 05:50:04;;;;;;;99.93;40.22;;;;;;;4.72;92.96;99136.47;5088648;28;20028;-20
2021/12/10 05:52:30;;;;;;;111.60;46.00;;;;;;;5.01;92.44;99151.91;5088043;28;20141;-20
2021/12/10 05:54:55;;;;;;;115.85;45.90;;;;;;;4.52;94.33;99128.56;5088382;28;20122;-20
2021/12/10 05:57:21;;;;;;;111.63;47.55;;;;;;;4.78;93.99;99110.09;5088370;28;20024;-20
2021/12/10 05:59:46;;;;;;;132.35;44.60;;;;;;;5.06;93.60;99122.22;5088329;28;20036;-20
2021/12/10 06:02:12;;;;;;;124.07;44.25;;;;;;;5.24;92.44;99151.47;5088241;28;20047;-21
2021/12/10 06:04:37;;;;;;;104.00;40.03;;;;;;;4.90;93.20;99160.44;5088271;28;20418;-21
2021/12/10 06:07:03;;;;;;;130.00;47.58;;;;;;;5.21;92.29;99133.41;5088237;28;20808;-20
2021/12/10 06:09:29;;;;;;;116.78;45.50;;;;;;;5.26;91.80;99148.63;5088806;28;20093;-20
2021/12/10 06:11:54;;;;;;;118.25;42.75;;;;;;;5.20;91.51;99171.41;5088045;28;20044;-20
2021/12/10 06:14:19;;;;;;;117.93;45.47;;;;;;;4.99;93.20;99130.19;5088041;28;20032;-20
2021/12/10 06:16:45;;;;;;;114.32;44.70;;;;;;;4.99;93.72;99161.06;5087901;28;20486;-20
2021/12/10 06:19:10;;;;;;;118.55;43.97;;;;;;;5.08;92.89;99130.75;5088456;28;20111;-20
2021/12/10 06:21:36;;;;;;;119.50;45.90;;;;;;;4.95;94.22;99168.59;5088284;28;20024;-21
2021/12/10 06:24:02;;;;;;;117.25;47.15;;;;;;;5.17;93.39;99150.69;5087961;28;20126;-20
2021/12/10 06:26:27;;;;;;;129.98;48.80;;;;;;;5.42;93.21;99168.53;5087585;28;20036;-21
2021/12/10 06:28:53;;;;;;;137.27;47.90;;;;;;;5.31;93.61;99187.66;5087757;28;20042;-20
2021/12/10 06:31:20;;;;;;;115.50;46.25;;;;;;;5.43;92.85;99172.78;5088251;28;20019;-20
2021/12/10 06:33:46;;;;;;;125.80;45.73;;;;;;;5.44;92.62;99177.06;5087791;28;20040;-20
2021/12/10 06:36:11;;;;;;;141.75;53.08;;;;;;;5.23;93.97;99181.59;5087581;28;20109;-20
2021/12/10 06:38:37;;;;;;;124.03;46.95;;;;;;;5.26;93.47;99175.06;5087530;28;20036;-20
2021/12/10 06:41:03;;;;;;;132.20;48.08;;;;;;;5.51;93.24;99201.66;5087937;28;20039;-21
2021/12/10 06:43:28;;;;;;;137.80;48.03;;;;;;;5.24;93.79;99182.38;5087566;28;20531;-22
2021/12/10 06:45:54;;;;;;;130.88;46.20;;;;;;;5.52;93.66;99198.00;5088015;28;20036;-20
2021/12/10 06:48:21;;;;;;;131.07;48.30;;;;;;;5.35;94.67;99215.31;5088073;28;20031;-20
2021/12/10 06:50:48;;;;;;;116.88;47.42;;;;;;;5.32;94.98;99218.38;5087670;28;20032;-20
2021/12/10 06:53:15;;;;;;;130.80;48.60;;;;;;;5.39;95.18;99221.81;5087887;28;20028;-20
2021/12/10 06:55:40;;;;;;;131.88;50.60;;;;;;;5.42;95.10;99210.84;5087997;28;20035;-20
2021/12/10 06:58:07;;;;;;;119.80;46.78;;;;;;;5.55;94.58;99241.72;5085970;28;20036;-20
2021/12/10 07:00:34;;;;;;;117.45;47.05;;;;;;;5.60;94.11;99240.09;5087418;28;20072;-20
2021/12/10 07:02:59;;;;;;;126.55;47.78;;;;;;;5.78;93.49;99226.22;5087910;28;20032;-20
2021/12/10 07:05:25;;;;;;;118.78;46.10;;;;;;;5.76;93.64;99206.25;5087879;28;20032;-20
2021/12/10 07:07:50;;;;;;;116.75;46.60;;;;;;;5.84;93.98;99188.34;5087765;28;20452;-20
2021/12/10 07:10:16;;;;;;;118.75;44.92;;;;;;;6.18;92.49;99217.34;5087545;28;20059;-21
2021/12/10 07:12:41;;;;;;;112.45;43.20;;;;;;;6.31;91.58;99204.03;5087616;28;20028;-20
2021/12/10 07:15:09;;;;;;;115.65;48.72;;;;;;;6.37;91.44;99213.75;5087546;28;20106;-20
2021/12/10 07:17:36;;;;;;;113.40;47.20;;;;;;;5.93;92.68;99217.22;5087515;28;20050;-20
2021/12/10 07:20:03;;;;;;;111.47;45.22;;;;;;;6.01;94.22;99214.38;5070800;28;20024;-21
2021/12/10 07:22:28;;;;;;;130.18;59.85;;;;;;;6.21;92.84;99209.78;5091646;28;20498;-20
2021/12/10 07:24:54;;;;;;;115.85;48.15;;;;;;;5.85;93.59;99205.03;5091369;28;20036;-21
2021/12/10 07:27:20;;;;;;;151.70;60.90;;;;;;;5.86;94.99;99208.47;5091359;28;20514;-21
2021/12/10 07:29:47;;;;;;;160.18;68.63;;;;;;;5.80;94.47;99181.84;5090983;28;20032;-20
2021/12/10 07:32:13;;;;;;;203.70;101.10;;;;;;;5.73;95.52;99199.56;5091068;28;20032;-20
2021/12/10 07:34:38;;;;;;;144.35;63.53;;;;;;;5.79;96.21;99174.13;5090439;28;20293;-20
2021/12/10 07:37:04;;;;;;;209.48;106.15;;;;;;;5.66;95.98;99163.56;5091195;28;20028;-21
2021/12/10 07:39:30;;;;;;;165.52;79.20;;;;;;;5.60;96.15;99160.75;5090892;28;20028;-21
2021/12/10 07:41:56;;;;;;;116.70;47.17;;;;;;;5.97;96.44;99190.16;5091169;28;20034;-20
2021/12/10 07:44:21;;;;;;;130.32;57.17;;;;;;;6.43;93.25;99197.03;5091088;28;20111;-20
2021/12/10 07:46:50;;;;;;;113.03;48.05;;;;;;;6.40;92.01;99168.34;5090948;28;20032;-20
2021/12/10 07:49:17;;;;;;;115.00;47.78;;;;;;;6.73;91.31;99195.63;5091035;28;20039;-20
2021/12/10 07:51:45;;;;;;;120.88;46.97;;;;;;;7.04;90.31;99176.22;5091119;28;20036;-20
2021/12/10 07:54:11;;;;;;;105.80;44.13;;;;;;;7.11;89.35;99161.06;5090498;28;20035;-21
2021/12/10 07:56:37;;;;;;;107.82;44.92;;;;;;;6.93;89.67;99134.53;5091001;28;20755;-20
2021/12/10 07:59:02;;;;;;;119.85;47.65;;;;;;;7.00;89.85;99143.22;5090840;28;20031;-20
2021/12/10 08:01:29;;;;;;;124.65;55.10;;;;;;;7.37;89.04;99143.25;5090707;28;20064;-20
2021/12/10 08:03:55;;;;;;;129.35;60.47;;;;;;;7.43;87.73;99151.13;5090299;28;20032;-20
2021/12/10 08:06:20;;;;;;;127.43;52.15;;;;;;;7.55;88.55;99171.63;5090681;28;20038;-21
2021/12/10 08:08:46;;;;;;;117.25;51.78;;;;;;;7.31;88.62;99160.84;5090149;28;20119;-20
2021/12/10 08:11:12;;;;;;;122.72;50.65;;;;;;;7.60;88.52;99185.03;5090601;28;20070;-20
2021/12/10 08:13:37;;;;;;;118.70;50.78;;;;;;;7.56;87.62;99199.78;5090655;28;20036;-20
2021/12/10 08:16:03;;;;;;;118.47;50.65;;;;;;;7.80;87.22;99203.41;5090660;28;20038;-20
2021/12/10 08:18:28;;;;;;;102.70;43.70;;;;;;;7.44;88.64;99200.53;5088806;28;20032;-20
2021/12/10 08:20:55;;;;;;;95.03;41.85;;;;;;;7.40;88.22;99193.22;5090249;28;20139;-20
2021/12/10 08:23:21;;;;;;;92.25;41.55;;;;;;;7.62;88.40;99213.00;5090246;28;20116;-21
2021/12/10 08:25:47;;;;;;;99.63;43.45;;;;;;;7.65;87.17;99199.28;5090275;28;20032;-20
2021/12/10 08:28:12;;;;;;;102.60;43.35;;;;;;;7.95;86.74;99187.91;5090240;28;20027;-20
2021/12/10 08:30:38;;;;;;;91.13;41.25;;;;;;;7.83;86.20;99184.38;5089694;28;20036;-20
2021/12/10 08:33:10;;;;;;;87.95;40.03;;;;;;;7.81;88.53;99203.19;5071766;28;20463;-20
2021/12/10 08:35:36;;;;;;;88.20;41.28;;;;;;;7.80;88.80;99198.91;5089957;28;20056;-20
2021/12/10 08:38:02;;;;;;;92.78;38.88;;;;;;;8.07;87.51;99200.44;5089845;28;20036;-21
2021/12/10 08:40:33;;;;;;;88.93;39.65;;;;;;;7.95;87.40;99208.34;5089821;28;20039;-20
2021/12/10 08:42:58;;;;;;;86.47;38.63;;;;;;;8.06;87.48;99220.88;5072089;28;20522;-20
2021/12/10 08:45:24;;;;;;;98.53;41.33;;;;;;;7.97;88.70;99217.72;5090392;28;20103;-20
2021/12/10 08:47:50;;;;;;;93.30;39.15;;;;;;;7.84;88.83;99197.41;5089839;28;20028;-20
2021/12/10 08:50:18;;;;;;;85.22;39.67;;;;;;;7.94;89.96;99196.09;5089655;28;20503;-21
2021/12/10 08:52:43;;;;;;;84.53;37.57;;;;;;;7.85;90.09;99175.16;5089515;28;20326;-20
2021/12/10 08:55:11;;;;;;;83.75;37.75;;;;;;;8.16;87.71;99172.53;5089849;28;20028;-20
2021/12/10 08:57:37;;;;;;;83.50;37.00;;;;;;;8.37;87.17;99190.63;5089630;28;20030;-20
2021/12/10 09:00:04;;;;;;;83.57;37.28;;;;;;;8.42;86.35;99161.56;5089597;28;20032;-20
2021/12/10 09:02:29;;;;;;;79.25;36.58;;;;;;;8.51;86.41;99163.91;5089108;28;20032;-20
2021/12/10 09:04:55;;;;;;;82.95;39.63;;;;;;;8.58;87.69;99168.09;5089133;28;20032;-20
2021/12/10 09:07:21;;;;;;;78.38;37.58;;;;;;;9.06;85.64;99160.97;5089333;28;20483;-21
2021/12/10 09:09:47;;;;;;;81.43;37.15;;;;;;;8.74;85.69;99132.03;5089408;28;20109;-21
2021/12/10 09:12:19;;;;;;;75.40;35.85;;;;;;;8.93;86.17;99162.03;5089567;28;20077;-20
2021/12/10 09:14:48;;;;;;;77.72;37.30;;;;;;;8.95;85.41;99137.84;5089012;28;20526;-20
2021/12/10 09:17:19;;;;;;;72.47;34.13;;;;;;;9.27;83.76;99142.81;5089421;28;20051;-20
2021/12/10 09:19:45;;;;;;;75.43;34.15;;;;;;;9.43;83.47;99139.44;5089275;28;20089;-20
2021/12/10 09:22:10;;;;;;;71.85;34.45;;;;;;;9.62;81.90;99142.75;5089157;28;20040;-20
2021/12/10 09:24:37;;;;;;;77.00;36.75;;;;;;;9.65;83.21;99148.41;5088797;28;20518;-20
2021/12/10 09:27:02;;;;;;;76.18;34.88;;;;;;;9.31;83.78;99163.38;5088902;28;20123;-21
2021/12/10 09:29:31;;;;;;;66.78;32.85;;;;;;;9.01;87.13;99168.81;5088770;28;20095;-20
2021/12/10 09:31:57;;;;;;;72.15;35.28;;;;;;;9.02;86.05;99170.47;5088718;28;20388;-21
2021/12/10 09:34:23;;;;;;;72.32;34.78;;;;;;;8.97;87.06;99167.66;5088590;28;20093;-20
2021/12/10 09:36:49;;;;;;;81.63;34.55;;;;;;;8.86;86.96;99150.66;5088615;28;20081;-20
2021/12/10 09:39:15;;;;;;;77.55;35.53;;;;;;;9.18;87.69;99153.00;5088801;28;20115;-20
2021/12/10 09:41:41;;;;;;;68.43;33.10;;;;;;;9.01;87.01;99143.06;5088247;28;20024;-20
2021/12/10 09:44:07;;;;;;;80.43;36.00;;;;;;;9.23;88.16;99156.59;5088412;28;20693;-20
2021/12/10 09:46:35;;;;;;;81.32;36.25;;;;;;;9.63;87.06;99133.72;5088314;28;20050;-20
2021/12/10 09:49:00;;;;;;;73.75;34.95;;;;;;;9.61;86.13;99149.13;5088937;28;20043;-20
2021/12/10 09:51:31;;;;;;;72.57;33.53;;;;;;;9.55;85.93;99148.22;5088585;28;20032;-20
2021/12/10 09:53:58;;;;;;;74.40;35.97;;;;;;;9.69;86.20;99158.63;5088389;28;20024;-20
2021/12/10 09:56:24;;;;;;;92.55;43.92;;;;;;;9.75;85.55;99155.00;5088418;28;20036;-20
2021/12/10 09:58:49;;;;;;;82.50;37.40;;;;;;;9.45;88.02;99180.72;5088399;28;20031;-20
2021/12/10 10:01:35;;;;;;;83.32;38.13;;;;;;;9.16;88.81;99160.41;5087232;28;20089;-20
2021/12/10 10:04:02;;;;;;;80.65;35.92;;;;;;;8.92;90.02;99164.91;5088641;28;20021;-21
2021/12/10 10:06:32;;;;;;;93.78;41.22;;;;;;;9.01;89.95;99168.81;5088364;28;20063;-20
2021/12/10 10:08:58;;;;;;;97.78;43.25;;;;;;;9.00;89.70;99168.03;5088198;28;20028;-21
2021/12/10 10:11:26;;;;;;;114.50;51.90;;;;;;;9.26;89.42;99163.28;5088077;28;20039;-20
2021/12/10 10:13:52;;;;;;;94.72;42.13;;;;;;;9.32;88.23;99186.31;5087995;28;20026;-20
2021/12/10 10:16:20;;;;;;;88.13;37.83;;;;;;;8.80;90.12;99181.63;5088158;28;20089;-20
2021/12/10 10:18:45;;;;;;;100.18;44.17;;;;;;;8.68;91.32;99170.16;5088218;28;20031;-20
2021/12/10 10:21:14;;;;;;;80.38;39.38;;;;;;;8.57;91.00;99153.16;5088796;28;20461;-20
2021/12/10 10:23:42;;;;;;;72.82;35.13;;;;;;;8.40;92.75;99168.94;5088072;28;20055;-21
2021/12/10 10:26:11;;;;;;;78.90;36.70;;;;;;;8.63;93.19;99162.09;5087834;28;20035;-20
2021/12/10 10:28:36;;;;;;;78.38;36.00;;;;;;;8.78;90.83;99141.19;5087909;28;20281;-20
2021/12/10 10:31:08;;;;;;;80.72;37.08;;;;;;;8.75;92.32;99128.34;5088041;28;20403;-20
2021/12/10 10:33:34;;;;;;;86.60;37.42;;;;;;;8.89;92.70;99106.84;5087620;28;20085;-20
2021/12/10 10:36:02;;;;;;;74.53;35.20;;;;;;;9.33;90.49;99099.31;5087430;28;20059;-20
2021/12/10 10:38:27;;;;;;;73.43;35.55;;;;;;;9.36;90.63;99101.50;5087681;28;20026;-20
2021/12/10 10:40:57;;;;;;;89.80;38.47;;;;;;;9.71;91.30;99085.44;5087699;28;20040;-21
2021/12/10 10:43:23;;;;;;;79.30;36.00;;;;;;;10.12;88.57;99106.69;5088003;28;20103;-20
2021/12/10 10:45:48;;;;;;;85.03;38.08;;;;;;;9.88;89.39;99114.78;5087841;28;20036;-20
2021/12/10 10:48:15;;;;;;;71.55;35.70;;;;;;;10.10;89.05;99098.13;5087753;28;20039;-20
2021/12/10 10:51:03;;;;;;;72.53;36.28;;;;;;;10.30;87.75;99127.84;5087605;28;20036;-20
2021/12/10 10:53:34;;;;;;;69.75;35.30;;;;;;;10.27;87.80;99123.75;5087503;28;20032;-20
2021/12/10 10:56:24;;;;;;;77.18;36.05;;;;;;;10.29;87.40;99126.16;5091232;28;20060;-20
2021/12/10 10:58:54;;;;;;;85.88;39.92;;;;;;;9.95;89.32;99099.47;5073516;28;20035;-20
2021/12/10 11:01:28;;;;;;;78.05;37.13;;;;;;;9.86;92.02;99084.91;5091831;28;20024;-20
2021/12/10 11:04:24;;;;;;;84.03;37.13;;;;;;;10.02;91.38;99102.78;5091670;28;20547;-21
2021/12/10 11:06:51;;;;;;;82.40;40.58;;;;;;;9.88;92.42;99071.38;5090437;28;20121;-20
2021/12/10 11:09:22;;;;;;;93.32;45.85;;;;;;;9.54;94.12;99061.44;5091387;28;20411;-20
2021/12/10 11:12:01;;;;;;;169.02;79.93;;;;;;;9.51;95.33;99059.22;5091515;28;20051;-20
2021/12/10 11:14:33;;;;;;;118.55;55.38;;;;;;;9.91;93.30;99054.91;5091241;28;20035;-20
2021/12/10 11:17:03;;;;;;;90.47;41.75;;;;;;;9.98;90.16;99040.38;5091405;28;20388;-20
2021/12/10 11:19:29;;;;;;;101.40;51.40;;;;;;;9.69;92.96;99041.47;5091066;28;20024;-20
2021/12/10 11:22:08;;;;;;;183.35;95.68;;;;;;;9.73;92.58;99042.63;5091222;28;20071;-21
2021/12/10 11:24:35;;;;;;;83.35;40.22;;;;;;;9.40;94.25;99060.88;5090791;28;20515;-20
2021/12/10 11:27:28;;;;;;;149.00;75.13;;;;;;;9.52;93.65;99042.22;5091436;28;20036;-20
2021/12/10 11:30:02;;;;;;;108.63;56.10;;;;;;;9.70;93.20;99059.84;5087885;28;20129;-20
2021/12/10 11:32:53;;;;;;;108.32;55.72;;;;;;;9.49;94.15;99079.94;5090638;28;20036;-20
2021/12/10 11:35:18;;;;;;;104.40;50.78;;;;;;;9.45;94.36;99074.28;5091127;28;20526;-20
2021/12/10 11:38:00;;;;;;;109.35;57.25;;;;;;;9.55;93.84;99094.19;5091169;28;20032;-20
2021/12/10 11:40:33;;;;;;;116.53;56.78;;;;;;;9.73;92.65;99070.03;5090608;28;20475;-20
2021/12/10 11:43:15;;;;;;;115.60;58.33;;;;;;;10.25;90.46;99074.41;5091103;28;20020;-20